sensor_id;sensor_type;location;lat;lon;timestamp;P1;durP1;ratioP1;P2;durP2;ratioP2
39400;SDS011;54391;50.000;7.360;2023-05-09T00:01:32;50.05;;;24.15;;
39400;SDS011;54391;50.000;7.360;2023-05-09T00:03:59;38.28;;;22.55;;
39400;SDS011;54391;50.000;7.360;2023-05-09T00:06:27;105.80;;;29.27;;
39400;SDS011;54391;50.000;7.360;2023-05-09T00:08:54;34.75;;;23.38;;
39400;SDS011;54391;50.000;7.360;2023-05-09T00:11:21;42.08;;;23.88;;
39400;SDS011;54391;50.000;7.360;2023-05-09T00:13:49;30.83;;;22.20;;
39400;SDS011;54391;50.000;7.360;2023-05-09T00:16:17;34.45;;;22.08;;
39400;SDS011;54391;50.000;7.360;2023-05-09T00:18:48;37.83;;;22.88;;
39400;SDS011;54391;50.000;7.360;2023-05-09T00:21:15;33.38;;;22.80;;
39400;SDS011;54391;50.000;7.360;2023-05-09T00:23:42;31.60;;;21.20;;
39400;SDS011;54391;50.000;7.360;2023-05-09T00:26:10;33.53;;;22.05;;
39400;SDS011;54391;50.000;7.360;2023-05-09T00:28:40;30.73;;;21.23;;
39400;SDS011;54391;50.000;7.360;2023-05-09T00:31:07;33.65;;;21.85;;
39400;SDS011;54391;50.000;7.360;2023-05-09T00:33:35;30.02;;;22.17;;
39400;SDS011;54391;50.000;7.360;2023-05-09T00:36:02;32.40;;;21.90;;
39400;SDS011;54391;50.000;7.360;2023-05-09T00:38:30;33.30;;;22.30;;
39400;SDS011;54391;50.000;7.360;2023-05-09T00:40:57;31.05;;;21.73;;
39400;SDS011;54391;50.000;7.360;2023-05-09T00:43:24;36.95;;;21.90;;
39400;SDS011;54391;50.000;7.360;2023-05-09T00:45:51;43.00;;;23.27;;
39400;SDS011;54391;50.000;7.360;2023-05-09T00:48:18;36.80;;;23.13;;
39400;SDS011;54391;50.000;7.360;2023-05-09T00:50:47;52.45;;;23.75;;
39400;SDS011;54391;50.000;7.360;2023-05-09T00:53:17;119.72;;;31.83;;
39400;SDS011;54391;50.000;7.360;2023-05-09T00:55:44;126.93;;;30.52;;
39400;SDS011;54391;50.000;7.360;2023-05-09T00:58:12;46.33;;;24.27;;
39400;SDS011;54391;50.000;7.360;2023-05-09T01:00:39;50.45;;;25.48;;
39400;SDS011;54391;50.000;7.360;2023-05-09T01:03:07;66.45;;;26.05;;
39400;SDS011;54391;50.000;7.360;2023-05-09T01:05:37;72.28;;;23.92;;
39400;SDS011;54391;50.000;7.360;2023-05-09T01:08:15;55.88;;;23.75;;
39400;SDS011;54391;50.000;7.360;2023-05-09T01:10:48;32.13;;;21.27;;
39400;SDS011;54391;50.000;7.360;2023-05-09T01:13:22;31.60;;;21.95;;
39400;SDS011;54391;50.000;7.360;2023-05-09T01:15:54;29.63;;;20.23;;
39400;SDS011;54391;50.000;7.360;2023-05-09T01:18:32;30.08;;;20.15;;
39400;SDS011;54391;50.000;7.360;2023-05-09T01:21:07;32.03;;;20.80;;
39400;SDS011;54391;50.000;7.360;2023-05-09T01:26:45;30.55;;;19.02;;
39400;SDS011;54391;50.000;7.360;2023-05-09T01:29:26;27.92;;;20.30;;
39400;SDS011;54391;50.000;7.360;2023-05-09T01:32:01;27.25;;;18.90;;
39400;SDS011;54391;50.000;7.360;2023-05-09T01:34:32;27.60;;;19.95;;
39400;SDS011;54391;50.000;7.360;2023-05-09T01:37:00;30.17;;;19.98;;
39400;SDS011;54391;50.000;7.360;2023-05-09T01:39:32;29.17;;;20.20;;
39400;SDS011;54391;50.000;7.360;2023-05-09T01:42:01;30.23;;;20.98;;
39400;SDS011;54391;50.000;7.360;2023-05-09T01:44:32;28.48;;;21.05;;
39400;SDS011;54391;50.000;7.360;2023-05-09T01:47:03;29.60;;;20.00;;
39400;SDS011;54391;50.000;7.360;2023-05-09T01:49:33;28.08;;;19.23;;
39400;SDS011;54391;50.000;7.360;2023-05-09T01:52:02;27.52;;;19.05;;
39400;SDS011;54391;50.000;7.360;2023-05-09T01:54:32;31.10;;;20.83;;
39400;SDS011;54391;50.000;7.360;2023-05-09T01:57:01;28.17;;;19.33;;
39400;SDS011;54391;50.000;7.360;2023-05-09T01:59:30;27.85;;;19.08;;
39400;SDS011;54391;50.000;7.360;2023-05-09T02:01:59;29.05;;;18.65;;
39400;SDS011;54391;50.000;7.360;2023-05-09T02:04:28;25.35;;;18.20;;
39400;SDS011;54391;50.000;7.360;2023-05-09T02:06:57;26.35;;;17.88;;
39400;SDS011;54391;50.000;7.360;2023-05-09T02:09:26;26.33;;;19.08;;
39400;SDS011;54391;50.000;7.360;2023-05-09T02:11:53;25.05;;;18.02;;
39400;SDS011;54391;50.000;7.360;2023-05-09T02:14:20;27.92;;;18.67;;
39400;SDS011;54391;50.000;7.360;2023-05-09T02:16:49;26.25;;;17.40;;
39400;SDS011;54391;50.000;7.360;2023-05-09T02:19:16;26.63;;;19.08;;
39400;SDS011;54391;50.000;7.360;2023-05-09T02:21:44;28.67;;;19.73;;
39400;SDS011;54391;50.000;7.360;2023-05-09T02:24:11;29.67;;;21.17;;
39400;SDS011;54391;50.000;7.360;2023-05-09T02:26:38;28.45;;;19.58;;
39400;SDS011;54391;50.000;7.360;2023-05-09T02:29:06;27.55;;;19.83;;
39400;SDS011;54391;50.000;7.360;2023-05-09T02:31:33;27.63;;;18.98;;
39400;SDS011;54391;50.000;7.360;2023-05-09T02:34:03;29.83;;;19.38;;
39400;SDS011;54391;50.000;7.360;2023-05-09T02:36:33;29.42;;;19.95;;
39400;SDS011;54391;50.000;7.360;2023-05-09T02:39:00;30.10;;;20.17;;
39400;SDS011;54391;50.000;7.360;2023-05-09T02:41:28;29.05;;;19.25;;
39400;SDS011;54391;50.000;7.360;2023-05-09T02:43:56;29.10;;;20.08;;
39400;SDS011;54391;50.000;7.360;2023-05-09T02:46:23;33.03;;;21.85;;
39400;SDS011;54391;50.000;7.360;2023-05-09T02:48:52;29.33;;;19.15;;
39400;SDS011;54391;50.000;7.360;2023-05-09T02:51:20;28.88;;;20.33;;
39400;SDS011;54391;50.000;7.360;2023-05-09T02:53:47;31.52;;;20.50;;
39400;SDS011;54391;50.000;7.360;2023-05-09T02:56:14;31.20;;;20.75;;
39400;SDS011;54391;50.000;7.360;2023-05-09T02:58:41;32.97;;;20.42;;
39400;SDS011;54391;50.000;7.360;2023-05-09T03:01:15;28.25;;;19.73;;
39400;SDS011;54391;50.000;7.360;2023-05-09T03:03:42;42.75;;;21.77;;
39400;SDS011;54391;50.000;7.360;2023-05-09T03:06:10;34.00;;;21.38;;
39400;SDS011;54391;50.000;7.360;2023-05-09T03:08:39;31.98;;;19.77;;
39400;SDS011;54391;50.000;7.360;2023-05-09T03:11:07;30.15;;;20.27;;
39400;SDS011;54391;50.000;7.360;2023-05-09T03:13:35;29.35;;;20.83;;
39400;SDS011;54391;50.000;7.360;2023-05-09T03:16:02;54.85;;;23.75;;
39400;SDS011;54391;50.000;7.360;2023-05-09T03:18:30;31.40;;;20.95;;
39400;SDS011;54391;50.000;7.360;2023-05-09T03:20:57;28.27;;;19.85;;
39400;SDS011;54391;50.000;7.360;2023-05-09T03:23:24;29.13;;;19.63;;
39400;SDS011;54391;50.000;7.360;2023-05-09T03:25:53;39.17;;;20.67;;
39400;SDS011;54391;50.000;7.360;2023-05-09T03:28:20;30.52;;;20.17;;
39400;SDS011;54391;50.000;7.360;2023-05-09T03:30:48;24.42;;;17.90;;
39400;SDS011;54391;50.000;7.360;2023-05-09T03:33:18;29.30;;;19.13;;
39400;SDS011;54391;50.000;7.360;2023-05-09T03:35:46;39.67;;;21.33;;
39400;SDS011;54391;50.000;7.360;2023-05-09T03:38:13;26.15;;;17.98;;
39400;SDS011;54391;50.000;7.360;2023-05-09T03:40:40;24.75;;;17.77;;
39400;SDS011;54391;50.000;7.360;2023-05-09T03:43:10;25.80;;;18.33;;
39400;SDS011;54391;50.000;7.360;2023-05-09T03:45:37;32.08;;;20.75;;
39400;SDS011;54391;50.000;7.360;2023-05-09T03:48:07;43.78;;;19.50;;
39400;SDS011;54391;50.000;7.360;2023-05-09T03:50:40;29.00;;;18.08;;
39400;SDS011;54391;50.000;7.360;2023-05-09T03:53:08;43.40;;;21.27;;
39400;SDS011;54391;50.000;7.360;2023-05-09T03:55:36;29.35;;;18.83;;
39400;SDS011;54391;50.000;7.360;2023-05-09T03:58:03;33.65;;;21.35;;
39400;SDS011;54391;50.000;7.360;2023-05-09T04:00:36;55.97;;;23.38;;
39400;SDS011;54391;50.000;7.360;2023-05-09T04:03:09;31.45;;;18.50;;
39400;SDS011;54391;50.000;7.360;2023-05-09T04:05:40;34.15;;;20.02;;
39400;SDS011;54391;50.000;7.360;2023-05-09T04:08:13;47.30;;;21.20;;
39400;SDS011;54391;50.000;7.360;2023-05-09T04:10:40;60.08;;;23.60;;
39400;SDS011;54391;50.000;7.360;2023-05-09T04:13:08;70.00;;;24.92;;
39400;SDS011;54391;50.000;7.360;2023-05-09T04:15:37;123.45;;;30.40;;
39400;SDS011;54391;50.000;7.360;2023-05-09T04:18:05;190.30;;;36.20;;
39400;SDS011;54391;50.000;7.360;2023-05-09T04:20:32;153.95;;;32.13;;
39400;SDS011;54391;50.000;7.360;2023-05-09T04:23:00;27.27;;;18.33;;
39400;SDS011;54391;50.000;7.360;2023-05-09T04:25:28;28.42;;;18.23;;
39400;SDS011;54391;50.000;7.360;2023-05-09T04:27:56;29.55;;;18.85;;
39400;SDS011;54391;50.000;7.360;2023-05-09T04:30:24;29.77;;;19.23;;
39400;SDS011;54391;50.000;7.360;2023-05-09T04:32:53;26.05;;;17.20;;
39400;SDS011;54391;50.000;7.360;2023-05-09T04:35:21;24.90;;;17.63;;
39400;SDS011;54391;50.000;7.360;2023-05-09T04:37:50;22.85;;;16.45;;
39400;SDS011;54391;50.000;7.360;2023-05-09T04:40:18;24.73;;;17.95;;
39400;SDS011;54391;50.000;7.360;2023-05-09T04:45:24;24.02;;;16.77;;
39400;SDS011;54391;50.000;7.360;2023-05-09T04:47:53;30.85;;;16.90;;
39400;SDS011;54391;50.000;7.360;2023-05-09T04:50:21;24.88;;;17.80;;
39400;SDS011;54391;50.000;7.360;2023-05-09T04:52:48;29.75;;;17.70;;
39400;SDS011;54391;50.000;7.360;2023-05-09T04:55:16;26.75;;;17.45;;
39400;SDS011;54391;50.000;7.360;2023-05-09T04:57:46;23.55;;;16.80;;
39400;SDS011;54391;50.000;7.360;2023-05-09T05:00:13;25.65;;;18.67;;
39400;SDS011;54391;50.000;7.360;2023-05-09T05:02:44;22.77;;;16.67;;
39400;SDS011;54391;50.000;7.360;2023-05-09T05:05:13;38.35;;;20.50;;
39400;SDS011;54391;50.000;7.360;2023-05-09T05:07:41;27.55;;;18.50;;
39400;SDS011;54391;50.000;7.360;2023-05-09T05:10:12;25.38;;;17.17;;
39400;SDS011;54391;50.000;7.360;2023-05-09T05:12:43;81.75;;;25.55;;
39400;SDS011;54391;50.000;7.360;2023-05-09T05:15:12;24.67;;;16.98;;
39400;SDS011;54391;50.000;7.360;2023-05-09T05:17:42;25.55;;;17.05;;
39400;SDS011;54391;50.000;7.360;2023-05-09T05:20:09;22.92;;;16.98;;
39400;SDS011;54391;50.000;7.360;2023-05-09T05:22:42;23.80;;;16.80;;
39400;SDS011;54391;50.000;7.360;2023-05-09T05:25:10;25.15;;;16.13;;
39400;SDS011;54391;50.000;7.360;2023-05-09T05:27:39;25.75;;;16.58;;
39400;SDS011;54391;50.000;7.360;2023-05-09T05:30:09;22.45;;;15.90;;
39400;SDS011;54391;50.000;7.360;2023-05-09T05:32:39;23.75;;;15.20;;
39400;SDS011;54391;50.000;7.360;2023-05-09T05:35:08;22.02;;;14.82;;
39400;SDS011;54391;50.000;7.360;2023-05-09T05:37:36;26.13;;;17.70;;
39400;SDS011;54391;50.000;7.360;2023-05-09T05:40:05;22.63;;;15.85;;
39400;SDS011;54391;50.000;7.360;2023-05-09T05:42:36;22.95;;;16.02;;
39400;SDS011;54391;50.000;7.360;2023-05-09T05:45:03;20.85;;;15.73;;
39400;SDS011;54391;50.000;7.360;2023-05-09T05:47:36;23.65;;;15.98;;
39400;SDS011;54391;50.000;7.360;2023-05-09T05:50:04;23.77;;;16.10;;
39400;SDS011;54391;50.000;7.360;2023-05-09T05:52:35;22.92;;;15.30;;
39400;SDS011;54391;50.000;7.360;2023-05-09T05:55:06;22.70;;;16.02;;
39400;SDS011;54391;50.000;7.360;2023-05-09T05:57:34;22.85;;;16.02;;
39400;SDS011;54391;50.000;7.360;2023-05-09T06:00:03;18.33;;;13.93;;
39400;SDS011;54391;50.000;7.360;2023-05-09T06:02:40;21.08;;;15.07;;
39400;SDS011;54391;50.000;7.360;2023-05-09T06:05:10;22.00;;;14.70;;
39400;SDS011;54391;50.000;7.360;2023-05-09T06:07:38;20.98;;;15.15;;
39400;SDS011;54391;50.000;7.360;2023-05-09T06:10:07;21.45;;;15.15;;
39400;SDS011;54391;50.000;7.360;2023-05-09T06:12:34;20.33;;;14.90;;
39400;SDS011;54391;50.000;7.360;2023-05-09T06:15:02;19.30;;;14.45;;
39400;SDS011;54391;50.000;7.360;2023-05-09T06:17:33;20.13;;;15.32;;
39400;SDS011;54391;50.000;7.360;2023-05-09T06:20:02;20.85;;;14.02;;
39400;SDS011;54391;50.000;7.360;2023-05-09T06:22:29;20.00;;;15.73;;
39400;SDS011;54391;50.000;7.360;2023-05-09T06:24:57;20.48;;;13.82;;
39400;SDS011;54391;50.000;7.360;2023-05-09T06:27:25;18.98;;;14.07;;
39400;SDS011;54391;50.000;7.360;2023-05-09T06:29:53;18.20;;;14.55;;
39400;SDS011;54391;50.000;7.360;2023-05-09T06:32:20;19.98;;;14.30;;
39400;SDS011;54391;50.000;7.360;2023-05-09T06:34:47;17.15;;;12.88;;
39400;SDS011;54391;50.000;7.360;2023-05-09T06:37:15;16.63;;;13.02;;
39400;SDS011;54391;50.000;7.360;2023-05-09T06:39:42;18.50;;;13.32;;
39400;SDS011;54391;50.000;7.360;2023-05-09T06:42:09;20.20;;;14.18;;
39400;SDS011;54391;50.000;7.360;2023-05-09T06:44:39;19.67;;;14.25;;
39400;SDS011;54391;50.000;7.360;2023-05-09T06:47:08;19.58;;;14.52;;
39400;SDS011;54391;50.000;7.360;2023-05-09T06:49:35;20.33;;;14.48;;
39400;SDS011;54391;50.000;7.360;2023-05-09T06:52:02;19.02;;;14.23;;
39400;SDS011;54391;50.000;7.360;2023-05-09T06:54:29;18.90;;;15.20;;
39400;SDS011;54391;50.000;7.360;2023-05-09T06:56:56;19.75;;;14.00;;
39400;SDS011;54391;50.000;7.360;2023-05-09T06:59:24;19.75;;;14.75;;
39400;SDS011;54391;50.000;7.360;2023-05-09T07:01:53;18.73;;;15.18;;
39400;SDS011;54391;50.000;7.360;2023-05-09T07:04:20;19.45;;;14.25;;
39400;SDS011;54391;50.000;7.360;2023-05-09T07:06:47;18.67;;;14.32;;
39400;SDS011;54391;50.000;7.360;2023-05-09T07:09:14;16.48;;;13.90;;
39400;SDS011;54391;50.000;7.360;2023-05-09T07:11:44;21.40;;;14.48;;
39400;SDS011;54391;50.000;7.360;2023-05-09T07:14:11;20.55;;;14.95;;
39400;SDS011;54391;50.000;7.360;2023-05-09T07:16:39;20.52;;;14.63;;
39400;SDS011;54391;50.000;7.360;2023-05-09T07:19:07;20.48;;;14.40;;
39400;SDS011;54391;50.000;7.360;2023-05-09T07:21:34;22.05;;;15.07;;
39400;SDS011;54391;50.000;7.360;2023-05-09T07:24:02;24.45;;;16.08;;
39400;SDS011;54391;50.000;7.360;2023-05-09T07:26:29;22.52;;;14.50;;
39400;SDS011;54391;50.000;7.360;2023-05-09T07:28:56;24.42;;;15.55;;
39400;SDS011;54391;50.000;7.360;2023-05-09T07:31:23;24.88;;;15.00;;
39400;SDS011;54391;50.000;7.360;2023-05-09T07:33:50;27.80;;;16.33;;
39400;SDS011;54391;50.000;7.360;2023-05-09T07:36:19;24.33;;;15.52;;
39400;SDS011;54391;50.000;7.360;2023-05-09T07:38:46;21.73;;;13.35;;
39400;SDS011;54391;50.000;7.360;2023-05-09T07:41:16;20.83;;;14.88;;
39400;SDS011;54391;50.000;7.360;2023-05-09T07:43:43;23.13;;;14.70;;
39400;SDS011;54391;50.000;7.360;2023-05-09T07:46:11;24.00;;;15.18;;
39400;SDS011;54391;50.000;7.360;2023-05-09T07:48:38;20.95;;;14.45;;
39400;SDS011;54391;50.000;7.360;2023-05-09T07:51:05;20.88;;;14.05;;
39400;SDS011;54391;50.000;7.360;2023-05-09T07:53:34;22.50;;;13.68;;
39400;SDS011;54391;50.000;7.360;2023-05-09T07:56:01;23.67;;;14.68;;
39400;SDS011;54391;50.000;7.360;2023-05-09T07:58:30;22.05;;;14.23;;
39400;SDS011;54391;50.000;7.360;2023-05-09T08:00:58;20.40;;;13.48;;
39400;SDS011;54391;50.000;7.360;2023-05-09T08:03:27;20.23;;;12.50;;
39400;SDS011;54391;50.000;7.360;2023-05-09T08:05:54;22.33;;;14.43;;
39400;SDS011;54391;50.000;7.360;2023-05-09T08:08:22;24.88;;;14.40;;
39400;SDS011;54391;50.000;7.360;2023-05-09T08:10:50;22.25;;;13.77;;
39400;SDS011;54391;50.000;7.360;2023-05-09T08:13:17;19.85;;;12.65;;
39400;SDS011;54391;50.000;7.360;2023-05-09T08:15:46;19.95;;;12.88;;
39400;SDS011;54391;50.000;7.360;2023-05-09T08:18:13;18.00;;;12.00;;
39400;SDS011;54391;50.000;7.360;2023-05-09T08:20:40;17.10;;;11.20;;
39400;SDS011;54391;50.000;7.360;2023-05-09T08:23:07;15.73;;;10.60;;
39400;SDS011;54391;50.000;7.360;2023-05-09T08:25:35;16.88;;;10.30;;
39400;SDS011;54391;50.000;7.360;2023-05-09T08:28:03;18.42;;;11.85;;
39400;SDS011;54391;50.000;7.360;2023-05-09T08:30:30;15.43;;;10.80;;
39400;SDS011;54391;50.000;7.360;2023-05-09T08:32:58;14.98;;;10.80;;
39400;SDS011;54391;50.000;7.360;2023-05-09T08:35:25;14.73;;;9.52;;
39400;SDS011;54391;50.000;7.360;2023-05-09T08:37:52;12.65;;;9.07;;
39400;SDS011;54391;50.000;7.360;2023-05-09T08:40:19;13.60;;;9.40;;
39400;SDS011;54391;50.000;7.360;2023-05-09T08:42:46;12.75;;;8.02;;
39400;SDS011;54391;50.000;7.360;2023-05-09T08:45:16;12.70;;;8.75;;
39400;SDS011;54391;50.000;7.360;2023-05-09T08:47:51;11.25;;;8.98;;
39400;SDS011;54391;50.000;7.360;2023-05-09T08:50:18;12.45;;;9.57;;
39400;SDS011;54391;50.000;7.360;2023-05-09T08:52:46;12.70;;;8.93;;
39400;SDS011;54391;50.000;7.360;2023-05-09T08:55:13;13.05;;;8.98;;
39400;SDS011;54391;50.000;7.360;2023-05-09T08:57:40;14.60;;;9.38;;
39400;SDS011;54391;50.000;7.360;2023-05-09T09:00:08;12.02;;;7.97;;
39400;SDS011;54391;50.000;7.360;2023-05-09T09:02:40;12.07;;;8.65;;
39400;SDS011;54391;50.000;7.360;2023-05-09T09:05:08;10.52;;;7.78;;
39400;SDS011;54391;50.000;7.360;2023-05-09T09:07:36;11.43;;;8.20;;
39400;SDS011;54391;50.000;7.360;2023-05-09T09:10:05;12.68;;;9.10;;
39400;SDS011;54391;50.000;7.360;2023-05-09T09:12:35;12.13;;;7.78;;
39400;SDS011;54391;50.000;7.360;2023-05-09T09:15:04;13.50;;;8.95;;
39400;SDS011;54391;50.000;7.360;2023-05-09T09:17:37;10.10;;;7.97;;
39400;SDS011;54391;50.000;7.360;2023-05-09T09:20:09;10.88;;;8.20;;
39400;SDS011;54391;50.000;7.360;2023-05-09T09:22:40;9.27;;;7.22;;
39400;SDS011;54391;50.000;7.360;2023-05-09T09:25:09;10.93;;;7.60;;
39400;SDS011;54391;50.000;7.360;2023-05-09T09:27:36;12.93;;;7.70;;
39400;SDS011;54391;50.000;7.360;2023-05-09T09:30:07;11.43;;;8.35;;
39400;SDS011;54391;50.000;7.360;2023-05-09T09:33:01;10.13;;;7.43;;
39400;SDS011;54391;50.000;7.360;2023-05-09T09:35:32;10.63;;;6.85;;
39400;SDS011;54391;50.000;7.360;2023-05-09T09:38:04;8.02;;;6.13;;
39400;SDS011;54391;50.000;7.360;2023-05-09T09:40:32;9.27;;;6.25;;
39400;SDS011;54391;50.000;7.360;2023-05-09T09:42:59;8.50;;;5.93;;
39400;SDS011;54391;50.000;7.360;2023-05-09T09:45:26;10.18;;;5.97;;
39400;SDS011;54391;50.000;7.360;2023-05-09T09:47:53;9.52;;;5.97;;
39400;SDS011;54391;50.000;7.360;2023-05-09T09:50:21;7.65;;;5.63;;
39400;SDS011;54391;50.000;7.360;2023-05-09T09:52:50;7.47;;;5.75;;
39400;SDS011;54391;50.000;7.360;2023-05-09T09:55:20;9.95;;;5.97;;
39400;SDS011;54391;50.000;7.360;2023-05-09T09:57:48;7.80;;;5.68;;
39400;SDS011;54391;50.000;7.360;2023-05-09T10:00:16;7.43;;;5.32;;
39400;SDS011;54391;50.000;7.360;2023-05-09T10:02:45;6.95;;;5.45;;
39400;SDS011;54391;50.000;7.360;2023-05-09T10:05:17;7.68;;;4.63;;
39400;SDS011;54391;50.000;7.360;2023-05-09T10:07:46;7.25;;;4.95;;
39400;SDS011;54391;50.000;7.360;2023-05-09T10:10:17;9.38;;;5.35;;
39400;SDS011;54391;50.000;7.360;2023-05-09T10:12:44;6.88;;;4.47;;
39400;SDS011;54391;50.000;7.360;2023-05-09T10:15:13;6.30;;;4.30;;
39400;SDS011;54391;50.000;7.360;2023-05-09T10:17:43;6.75;;;4.45;;
39400;SDS011;54391;50.000;7.360;2023-05-09T10:20:10;6.95;;;4.13;;
39400;SDS011;54391;50.000;7.360;2023-05-09T10:22:39;5.10;;;4.00;;
39400;SDS011;54391;50.000;7.360;2023-05-09T10:25:09;4.40;;;2.88;;
39400;SDS011;54391;50.000;7.360;2023-05-09T10:27:43;4.13;;;2.78;;
39400;SDS011;54391;50.000;7.360;2023-05-09T10:30:12;5.40;;;3.55;;
39400;SDS011;54391;50.000;7.360;2023-05-09T10:32:46;5.32;;;3.40;;
39400;SDS011;54391;50.000;7.360;2023-05-09T10:35:17;4.75;;;3.15;;
39400;SDS011;54391;50.000;7.360;2023-05-09T10:37:45;4.97;;;3.10;;
39400;SDS011;54391;50.000;7.360;2023-05-09T10:40:15;5.10;;;3.45;;
39400;SDS011;54391;50.000;7.360;2023-05-09T10:42:44;5.93;;;3.33;;
39400;SDS011;54391;50.000;7.360;2023-05-09T10:45:12;5.85;;;2.83;;
39400;SDS011;54391;50.000;7.360;2023-05-09T10:47:40;4.63;;;2.90;;
39400;SDS011;54391;50.000;7.360;2023-05-09T10:50:09;4.38;;;2.72;;
39400;SDS011;54391;50.000;7.360;2023-05-09T10:55:46;4.30;;;2.63;;
39400;SDS011;54391;50.000;7.360;2023-05-09T10:58:23;5.05;;;2.50;;
39400;SDS011;54391;50.000;7.360;2023-05-09T11:00:52;4.57;;;3.22;;
39400;SDS011;54391;50.000;7.360;2023-05-09T11:03:20;5.82;;;2.75;;
39400;SDS011;54391;50.000;7.360;2023-05-09T11:05:49;4.38;;;2.95;;
39400;SDS011;54391;50.000;7.360;2023-05-09T11:08:22;4.28;;;2.80;;
39400;SDS011;54391;50.000;7.360;2023-05-09T11:10:52;3.78;;;2.90;;
39400;SDS011;54391;50.000;7.360;2023-05-09T11:13:20;6.13;;;3.63;;
39400;SDS011;54391;50.000;7.360;2023-05-09T11:15:50;3.70;;;2.80;;
39400;SDS011;54391;50.000;7.360;2023-05-09T11:18:31;4.20;;;3.10;;
39400;SDS011;54391;50.000;7.360;2023-05-09T11:20:58;4.65;;;2.60;;
39400;SDS011;54391;50.000;7.360;2023-05-09T11:23:32;4.20;;;2.92;;
39400;SDS011;54391;50.000;7.360;2023-05-09T11:26:04;5.20;;;3.17;;
39400;SDS011;54391;50.000;7.360;2023-05-09T11:28:33;5.25;;;3.40;;
39400;SDS011;54391;50.000;7.360;2023-05-09T11:31:07;5.22;;;3.53;;
39400;SDS011;54391;50.000;7.360;2023-05-09T11:33:36;3.75;;;2.95;;
39400;SDS011;54391;50.000;7.360;2023-05-09T11:36:13;4.88;;;3.72;;
39400;SDS011;54391;50.000;7.360;2023-05-09T11:38:51;7.72;;;3.88;;
39400;SDS011;54391;50.000;7.360;2023-05-09T11:41:28;5.40;;;3.10;;
39400;SDS011;54391;50.000;7.360;2023-05-09T11:43:56;4.40;;;3.25;;
39400;SDS011;54391;50.000;7.360;2023-05-09T11:46:24;4.43;;;3.45;;
39400;SDS011;54391;50.000;7.360;2023-05-09T11:48:52;7.40;;;3.38;;
39400;SDS011;54391;50.000;7.360;2023-05-09T11:51:19;6.05;;;3.40;;
39400;SDS011;54391;50.000;7.360;2023-05-09T11:53:48;4.50;;;3.17;;
39400;SDS011;54391;50.000;7.360;2023-05-09T11:56:18;5.53;;;3.30;;
39400;SDS011;54391;50.000;7.360;2023-05-09T11:58:50;3.25;;;2.45;;
39400;SDS011;54391;50.000;7.360;2023-05-09T12:01:17;4.97;;;2.90;;
39400;SDS011;54391;50.000;7.360;2023-05-09T12:03:45;6.32;;;2.92;;
39400;SDS011;54391;50.000;7.360;2023-05-09T12:06:14;3.45;;;2.75;;
39400;SDS011;54391;50.000;7.360;2023-05-09T12:08:42;5.75;;;3.22;;
39400;SDS011;54391;50.000;7.360;2023-05-09T12:11:10;5.40;;;3.42;;
39400;SDS011;54391;50.000;7.360;2023-05-09T12:13:43;5.40;;;3.20;;
39400;SDS011;54391;50.000;7.360;2023-05-09T12:16:13;7.20;;;3.53;;
39400;SDS011;54391;50.000;7.360;2023-05-09T12:18:44;4.10;;;2.75;;
39400;SDS011;54391;50.000;7.360;2023-05-09T12:21:11;3.33;;;2.83;;
39400;SDS011;54391;50.000;7.360;2023-05-09T12:23:39;4.05;;;2.58;;
39400;SDS011;54391;50.000;7.360;2023-05-09T12:26:07;4.18;;;2.65;;
39400;SDS011;54391;50.000;7.360;2023-05-09T12:28:34;6.75;;;3.28;;
39400;SDS011;54391;50.000;7.360;2023-05-09T12:31:02;4.82;;;2.85;;
39400;SDS011;54391;50.000;7.360;2023-05-09T12:33:31;5.38;;;2.80;;
39400;SDS011;54391;50.000;7.360;2023-05-09T12:36:02;3.58;;;2.17;;
39400;SDS011;54391;50.000;7.360;2023-05-09T12:38:31;2.70;;;2.20;;
39400;SDS011;54391;50.000;7.360;2023-05-09T12:40:59;4.60;;;2.38;;
39400;SDS011;54391;50.000;7.360;2023-05-09T12:43:28;3.17;;;2.30;;
39400;SDS011;54391;50.000;7.360;2023-05-09T12:45:56;4.03;;;2.38;;
39400;SDS011;54391;50.000;7.360;2023-05-09T12:48:24;4.10;;;2.22;;
39400;SDS011;54391;50.000;7.360;2023-05-09T12:50:53;3.78;;;2.35;;
39400;SDS011;54391;50.000;7.360;2023-05-09T12:53:23;5.43;;;2.67;;
39400;SDS011;54391;50.000;7.360;2023-05-09T12:55:53;4.65;;;2.70;;
39400;SDS011;54391;50.000;7.360;2023-05-09T12:58:21;4.10;;;2.30;;
39400;SDS011;54391;50.000;7.360;2023-05-09T13:00:49;3.85;;;2.20;;
39400;SDS011;54391;50.000;7.360;2023-05-09T13:03:19;3.50;;;2.50;;
39400;SDS011;54391;50.000;7.360;2023-05-09T13:05:57;4.13;;;2.97;;
39400;SDS011;54391;50.000;7.360;2023-05-09T13:08:25;4.00;;;2.35;;
39400;SDS011;54391;50.000;7.360;2023-05-09T13:10:52;5.95;;;2.38;;
39400;SDS011;54391;50.000;7.360;2023-05-09T13:13:19;3.08;;;2.42;;
39400;SDS011;54391;50.000;7.360;2023-05-09T13:15:50;4.15;;;2.50;;
39400;SDS011;54391;50.000;7.360;2023-05-09T13:18:17;3.85;;;2.78;;
39400;SDS011;54391;50.000;7.360;2023-05-09T13:20:45;4.30;;;2.50;;
39400;SDS011;54391;50.000;7.360;2023-05-09T13:23:14;4.82;;;2.05;;
39400;SDS011;54391;50.000;7.360;2023-05-09T13:25:41;3.45;;;2.50;;
39400;SDS011;54391;50.000;7.360;2023-05-09T13:28:08;3.67;;;2.13;;
39400;SDS011;54391;50.000;7.360;2023-05-09T13:30:35;2.10;;;1.88;;
39400;SDS011;54391;50.000;7.360;2023-05-09T13:33:02;5.25;;;2.08;;
39400;SDS011;54391;50.000;7.360;2023-05-09T13:35:30;6.32;;;2.22;;
39400;SDS011;54391;50.000;7.360;2023-05-09T13:37:57;3.88;;;2.50;;
39400;SDS011;54391;50.000;7.360;2023-05-09T13:40:26;4.15;;;2.28;;
39400;SDS011;54391;50.000;7.360;2023-05-09T13:42:53;2.45;;;1.85;;
39400;SDS011;54391;50.000;7.360;2023-05-09T13:45:20;2.92;;;2.03;;
39400;SDS011;54391;50.000;7.360;2023-05-09T13:47:48;2.53;;;2.13;;
39400;SDS011;54391;50.000;7.360;2023-05-09T13:50:16;3.80;;;1.98;;
39400;SDS011;54391;50.000;7.360;2023-05-09T13:52:43;4.60;;;2.22;;
39400;SDS011;54391;50.000;7.360;2023-05-09T13:55:10;3.55;;;2.33;;
39400;SDS011;54391;50.000;7.360;2023-05-09T13:57:38;3.08;;;2.50;;
39400;SDS011;54391;50.000;7.360;2023-05-09T14:00:06;3.25;;;2.45;;
39400;SDS011;54391;50.000;7.360;2023-05-09T14:02:37;3.13;;;2.20;;
39400;SDS011;54391;50.000;7.360;2023-05-09T14:05:05;4.43;;;2.45;;
39400;SDS011;54391;50.000;7.360;2023-05-09T14:07:32;4.55;;;2.47;;
39400;SDS011;54391;50.000;7.360;2023-05-09T14:09:59;5.38;;;2.58;;
39400;SDS011;54391;50.000;7.360;2023-05-09T14:12:29;3.90;;;3.20;;
39400;SDS011;54391;50.000;7.360;2023-05-09T14:14:58;5.68;;;3.50;;
39400;SDS011;54391;50.000;7.360;2023-05-09T14:17:26;4.47;;;3.70;;
39400;SDS011;54391;50.000;7.360;2023-05-09T14:19:53;6.07;;;5.15;;
39400;SDS011;54391;50.000;7.360;2023-05-09T14:22:21;5.13;;;4.03;;
39400;SDS011;54391;50.000;7.360;2023-05-09T14:24:48;8.65;;;4.70;;
39400;SDS011;54391;50.000;7.360;2023-05-09T14:27:15;7.22;;;4.57;;
39400;SDS011;54391;50.000;7.360;2023-05-09T14:29:42;5.32;;;4.30;;
39400;SDS011;54391;50.000;7.360;2023-05-09T14:32:10;7.47;;;4.13;;
39400;SDS011;54391;50.000;7.360;2023-05-09T14:34:38;5.45;;;3.95;;
39400;SDS011;54391;50.000;7.360;2023-05-09T14:37:05;5.18;;;4.15;;
39400;SDS011;54391;50.000;7.360;2023-05-09T14:39:38;7.47;;;4.90;;
39400;SDS011;54391;50.000;7.360;2023-05-09T14:42:06;7.65;;;4.35;;
39400;SDS011;54391;50.000;7.360;2023-05-09T14:44:35;6.80;;;4.40;;
39400;SDS011;54391;50.000;7.360;2023-05-09T14:47:02;10.40;;;4.78;;
39400;SDS011;54391;50.000;7.360;2023-05-09T14:49:31;5.93;;;4.18;;